Home Code Reference WordPress Repository Plugins Metar ARFOR WordPress Shortcode Example

ARFOR WordPress Shortcode Example

This page is used to demonstrate the ARFOR feature of the Metar WordPress plugin.

BANKSTOWN YSBK

TAF YSBK 221102Z 2212/2224
VRB03KT 9999 SCT025
RMK
T 16 15 14 14 Q 1022 1021 1020 1020

SPECI YSBK 221603Z AUTO 00000KT 9999 // SCT115 14/13 Q1020 RMK
RF00.0/000.0

BATHURST YBTH

TAF YBTH 221250Z 2214/2302
VRB03KT CAVOK
FM222300 17007KT CAVOK
PROB30 2217/2223 0500 FG
RMK
T 11 09 07 14 Q 1023 1021 1022 1023

METAR YBTH 221600Z AUTO 00000KT 9999 // NCD 10/09 Q1022 RMK
RF00.0/001.2

CAMDEN YSCN

TAF AMD YSCN 221049Z 2212/2224
VRB03KT 9999 SCT030
PROB30 2216/2222 0500 FG
RMK
T 15 14 12 11 Q 1022 1021 1020 1021

SPECI YSCN 221600Z AUTO 00000KT 0400 // SCT034 12/12 Q1021 RMK
RF00.0/000.0

* CANBERRA YSCB

TAF AMD YSCB 221228Z 2212/2312
VRB03KT 9999 FEW015
FM230000 34006KT 9999 FEW040
FM231100 VRB04KT 9999 FEW015
INTER 2213/2215 2000 SHRA SCT015 BKN030
PROB30 2216/2218 2000 BR FEW002
PROB30 2218/2222 0500 FG BKN001
RMK
T 12 10 08 07 Q 1023 1022 1021 1022

METAR YSCB 221600Z AUTO 15001KT 9999 // NCD 08/08 Q1021
RMK RF00.0/000.2

COOMA YCOM

TAF YCOM 221247Z 2214/2302
34005KT 9999 SCT050
FM221500 VRB03KT 9999 FEW010
FM222200 34005KT 9999 SCT008
FM230000 02008KT CAVOK
PROB30 2214/2215 2000 BR FEW002
PROB30 2215/2223 0500 FG
RMK
T 08 07 06 13 Q 1023 1021 1022 1023

SPECI YCOM 221613Z AUTO 00000KT 6000 // NCD 05/04 Q1022 RMK
RF00.0/008.0

COOTAMUNDRA YCTM

Nil current TAF.

METAR/SPECI observations are not generated for this location.

COWRA YCWR

Nil current TAF.

METAR YCWR 221600Z AUTO 00000KT //// // ////// 11/09 Q1020
RMK RF00.0/000.0

FORBES YFBS

Nil current TAF.

METAR YFBS 221600Z AUTO 05001KT //// // ////// 12/09 Q1019 RMK
RF00.0/000.0

GOULBURN YGLB

TAF AMD YGLB 212303Z 2123/2208
04006KT 9999 BKN012
FM220000 06008KT 9999 SCT025
FM220200 08010KT 9999 -SHRA SCT045
PROB30 TEMPO 2205/2208 3000 TSRA SCT025 SCT050CB
RMK
T 14 20 22 16 Q 1025 1023 1021 1022

SPECI YGLB 221600Z AUTO 10001KT 0150 // OVC001 10/10 Q1022 RMK
RF00.0/000.0 PRESENT WEATHER SENSOR US

HOLSWORTHY YSHW

TAF YSHW 221102Z 2212/2224
VRB03KT 9999 SCT025
RMK
T 15 15 13 13 Q 1022 1021 1020 1020

METAR YSHW 221600Z AUTO 00000KT 9999 // NCD 13/12 Q1020 RMK
RF00.0/000.0

LORD HOWE ISLAND YLHI

TAF AMD YLHI 221335Z 2213/2312
08018KT 9000 -SHRA SCT010 BKN020
TEMPO 2213/2312 2000 SHRA BKN008
RMK FM221300 MOD TURB BLW 5000FT TL222200
T 20 20 20 22 Q 1019 1018 1017 1018

METAR YLHI 221600Z AUTO 07021KT 9999 // SCT020 BKN028 BKN110 21/18 Q1017
RMK RF00.0/005.0

MALLACOOTA YMCO

Nil current TAF.

METAR YMCO 221600Z AUTO 29005KT //// // ////// 12/10 Q1020 RMK
RF00.0/000.0

MERIMBULA YMER

TAF AMD YMER 221209Z 2213/2302
32005KT CAVOK
PROB30 2217/2221 4000 BR
RMK
T 14 13 12 14 Q 1021 1020 1020 1021

METAR YMER 221600Z AUTO 22001KT 9999 // NCD 11/10 Q1020 RMK
RF00.0/000.0

MORUYA YMRY

TAF AMD YMRY 221225Z 2213/2302
33005KT 9999 FEW020
FM230100 06008KT CAVOK
PROB30 2214/2221 0500 FG
RMK
T 14 13 12 15 Q 1021 1020 1019 1021

SPECI YMRY 221612Z AUTO 26003KT 5000 // SCT036 12/11 Q1020 RMK
RF00.0/000.0

NORFOLK ISLAND YSNF

TAF YSNF 221131Z 2212/2312
10015G25KT 9999 -SHRA BKN018
FM221400 08015G25KT 9999 -SHRA BKN020
BECMG 2300/2302 08015G25KT 9999 SCT020
INTER 2212/2222 4000 SHRA BKN004
RMK FM221200 MOD TURB BLW 5000FT TILL222400
T 21 20 20 22 Q 1020 1019 1019 1020

METAR YSNF 221600Z AUTO 09017KT 9999 // SCT020 OVC029 21/18 Q1018
RMK RF00.0/002.2

* NOWRA YSNW

YSNW TAF YSNW 221104Z 2212/2224
30005KT CAVOK
FM222300 36005KT CAVOK
RMK
T 15 13 13 13 Q 1022 1021 1019 1020

METAR YSNW 221600Z AUTO 29006KT 9999 // SCT084 BKN120 15/15 Q1020
RMK RF00.0/000.0

ORANGE YORG

TAF AMD YORG 221253Z 2214/2302
VRB03KT CAVOK
FM222300 16010KT CAVOK
PROB30 2216/2222 0500 FG
RMK
T 09 07 07 15 Q 1023 1022 1022 1023

METAR YORG 221600Z AUTO 00000KT 9999 // NCD 08/06 Q1022 RMK
RF00.0/000.0

PARKES YPKS

TAF YPKS 220056Z 2202/2214
24007KT CAVOK
FM220300 24007KT 9999 -SHRA SCT060
FM221000 08003KT CAVOK
PROB40 TEMPO 2203/2208 3000 TSRA SCT060CB
RMK
T 24 24 20 15 Q 1021 1020 1020 1021

METAR YPKS 221600Z AUTO 08005KT 9999 // SCT073 13/11 Q1020 RMK
RF00.0/000.0

RICHMOND (NSW) YSRI

TAF YSRI 221130Z 2212/2312
VRB03KT 9999 SCT010
FM230000 14010KT CAVOK
FM231000 VRB04KT CAVOK
PROB30 2216/2222 0500 FG
RMK
T 16 14 13 13 Q 1022 1021 1020 1021

METAR YSRI 221600Z AUTO 00000KT 9999 // BKN039 14/14 Q1020 RMK
RF00.0/000.0 PRESENT WEATHER SENSOR US

* SYDNEY YSSY

TAF YSSY 221111Z 2212/2318
11005KT 9999 SCT030
FM221600 27005KT 9999 -SHRA SCT025
FM230100 14012KT 9999 FEW030
RMK
T 19 18 17 17 Q 1021 1021 1019 1020

TTF METAR YSSY 221600Z 33005KT CAVOK 17/15 Q1020
RMK RF00.0/000.0
NOSIG

TEMORA YTEM

Nil current TAF.

METAR YTEM 221600Z AUTO 19004KT //// // ////// 10/05 Q1020 RMK
RF00.0/000.0

WAGGA WAGGA YSWG

TAF YSWG 221103Z 2212/2224
VRB04KT CAVOK
FM221800 08005KT CAVOK
RMK
T 15 13 11 11 Q 1020 1020 1019 1020

METAR YSWG 221600Z AUTO 17004KT 110V220 9999 // NCD 10/07 Q1019 RMK
RF00.0/000.0

WOLLONGONG YWOL

TAF YWOL 221247Z 2214/2302
30005KT 9999 FEW030
FM230000 15008KT 9999 FEW030
RMK
T 14 12 13 21 Q 1021 1020 1020 1021

METAR YWOL 221600Z AUTO 00000KT //// // BKN120 13/13 Q1020 RMK
RF00.0/000.0

YOUNG YYNG

TAF YYNG 220056Z 2202/2214
29005KT CAVOK
FM220400 24005KT 9999 -SHRA SCT060
FM221000 10003KT CAVOK
PROB40 TEMPO 2204/2208 3000 TSRA SCT060CB
RMK
T 23 24 20 12 Q 1021 1020 1020 1021

METAR YYNG 221600Z AUTO 19001KT 9999 // NCD 09/08 Q1020 RMK
RF00.0/000.0

* Note: The latest TTF automatically supersedes the TAF for the 3 hr validity of the TTF, unless otherwise specified in the TTF.